الصفحة الرئيسية
METAR-TAF:

METAR-TAF

مطار :

سافانخت, لاوس

دائرة عرض: 16-33-24N, خط طول: 104-45-34E, ارتفاع: 155 متر

مراقبة الطقس الحالي

تاريخ ووقت الإصدار 1ساعة و 10 دقيقة قبل الساعة 07:00UTC
ريح 4 عقدة من الجنوب
درجة الحرارة 30°درجة مئوية
الرطوبة 66%
ضغط 1011 hPa
الرؤية: 6000 متر
غيوم متفرقة على ارتفاع 1600 قدم
غيوم مفككة على ارتفاع 9300 قدم
مطر

METAR: VLSK 260700Z 18004KT 6000 RA SCT016 BKN093 30/23 Q1011 NOSIG

زمن: 15:10 (08:10 UTC)

توقعات

تاريخ ووقت الإصدار 3ساعات و 10 دقيقة قبل الساعة 05:00UTC
التوقعات صالحة من26 الساعة 06 UTC إلى 27 الساعة 06 UTC
ريح 4 عقدة من الشرق
الرؤية: 8000 متر
غيوم متفرقة على ارتفاع 1600 قدم
غيوم قليلة على ارتفاع 5000 قدم
غيوم مفككة على ارتفاع 10000 قدم

TAF: VLSK 260500Z 2606/2706 09004KT 8000 SCT016 FEW050 BKN100

أرصاد الطقس والتوقعات من أكثر من 4000 مطار (تقارير الطقس للمطار METAR والتنبؤ بالطقس بالمطارTAF).

المحطات المتاحة هي النقط الصفراء والحمراء على الخريطة.

حرك المؤشر فوق النقطة لمعرفة اسم المحطة.

ثم انقر لمعرفة أرصاد وتوقعات الطقس.

لتغيير الخارطة: اضغط على الأزرار الخضراء مع رمز الصليب الأسود للتكبير. على الزر الأخضر مع شرطة للتصغير، أو على الأسهم الخضراء للخرائط المجاورة.


METAR-TAF: